Terminal Aerodrome Forecast
Issued by NWS

Home | Current Version | Previous Version | Text Only | Print | Product List | Glossary On
Versions: 1 2 3 4 5 6 7 8 9 10 11 12 13 14 15 16 17 18 19 20 21 22 23 24 25 26
000
FTUS41 KOKX 210244 AAC
TAFGON
TAF AMD
KGON 210244Z 2103/2124 14012KT 1SM -DZ BR OVC002
     FM210400 10007KT 1/4SM -DZ FG VV002
      TEMPO 2106/2109 2SM SHRA
     FM211000 20005KT 1/4SM -DZ FG OVC004
     FM211400 23007KT 4SM BR BKN025
     FM211700 27013G20KT P6SM SCT050=

USA.gov is the U.S. government's official web portal to all federal, state and local government web resources and services.